Flight Track Log - Related Links

Times and Time Zones

All times are in EDT time to prevent confusion due to time zone crossing. See the N506AE flight status page for this flight to view local times or setup timezone preferences in your user account.

Time Position Orientation Groundspeed Altitude Reporting Facility
EDT Latitude Longitude Course Direction KTS MPH feet Rate Location/Type
Sun 01:23:32 PM 40.7421 -112.0413 47° Northeast  Level FlightAware Approximate
Sun 01:23:35 PM 40.7733 -111.9964 31° Northeast 165 190 5,100  Level Salt Lake Center
Sun 01:28:26 PM 40.9442 -111.8617 66° East 359 413 13,600 1,683 Climbing Salt Lake Center
Sun 01:29:28 PM 40.9867 -111.7372 70° East 382 440 15,000 1,645 Climbing Salt Lake Center
Sun 01:30:30 PM 41.0308 -111.5772 83° East 398 458 17,000 1,452 Climbing Salt Lake Center
Sun 01:31:32 PM 41.0447 -111.4244 83° East 415 478 18,000 1,210 Climbing Salt Lake Center
Sun 01:32:34 PM 41.0583 -111.2669 83° East 426 490 19,500 1,548 Climbing Salt Lake Center
Sun 01:33:36 PM 41.0722 -111.1081 74° East 429 494 21,200 1,597 Climbing Salt Lake Center
Sun 01:34:38 PM 41.1061 -110.9553 71° East 427 491 22,800 1,452 Climbing Salt Lake Center
Sun 01:35:40 PM 41.1450 -110.8017 72° East 428 493 24,200 1,210 Climbing Salt Lake Center
Sun 01:36:42 PM 41.1878 -110.6306 71° East 437 503 25,300 1,016 Climbing Salt Lake Center
Sun 01:37:44 PM 41.2256 -110.4817 71° East 442 509 26,300 968 Climbing Salt Lake Center
Sun 01:38:46 PM 41.2722 -110.3011 72° East 456 525 27,300 871 Climbing Salt Lake Center
Sun 01:39:48 PM 41.3114 -110.1447 72° East 465 535 28,100 871 Climbing Salt Lake Center
Sun 01:40:50 PM 41.3567 -109.9619 71° East 465 535 29,100 919 Climbing Salt Lake Center
Sun 01:41:52 PM 41.3972 -109.8033 72° East 470 541 30,000 919 Climbing Salt Lake Center
Sun 01:42:54 PM 41.4439 -109.6158 72° East 475 547 31,000 871 Climbing Salt Lake Center
Sun 01:43:56 PM 41.4836 -109.4544 71° East 476 548 31,800 726 Climbing Salt Lake Center
Sun 01:44:58 PM 41.5253 -109.2892 72° East 482 555 32,500 581 Climbing Salt Lake Center
Sun 01:46:00 PM 41.5717 -109.0944 79° East 482 555 33,000 242 Climbing Salt Lake Center
Sun 01:47:02 PM 41.5967 -108.9217 84° East 495 570 33,000  Level Salt Lake Center
Sun 01:48:05 PM 41.6122 -108.7192 84° East 490 564 33,000  Level Salt Lake Center
Sun 01:49:07 PM 41.6256 -108.5456 85° East 491 565 33,000  Level Salt Lake Center
Sun 01:50:09 PM 41.6375 -108.3717 85° East 491 565 33,000  Level Salt Lake Center
Sun 01:51:11 PM 41.6517 -108.1708 84° East 488 562 33,000  Level Salt Lake Center
Sun 01:52:13 PM 41.6647 -107.9994 82° East 486 559 33,000  Level Salt Lake Center
Sun 01:53:16 PM 41.6842 -107.8019 80° East 482 555 33,000  Level Salt Lake Center
Sun 01:54:18 PM 41.7067 -107.6364 80° East 476 548 33,000  Level Salt Lake Center
Sun 01:55:20 PM 41.7317 -107.4406 80° East 478 550 33,000  Level Salt Lake Center
Sun 01:56:22 PM 41.7528 -107.2717 81° East 480 552 33,000  Level Salt Lake Center
Sun 01:57:24 PM 41.7767 -107.0736 81° East 482 555 33,000  Level Salt Lake Center
Sun 01:58:27 PM 41.7972 -106.9031 80° East 484 557 33,000  Level Salt Lake Center
Sun 01:59:01 PM 41.8122 -106.7881 81° East 484 557 33,000  Level Denver Center
Sun 02:00:04 PM 41.8367 -106.5886 81° East 486 559 33,000  Level Denver Center
Sun 02:01:06 PM 41.8589 -106.4017 82° East 488 562 33,000  Level Denver Center
Sun 02:02:09 PM 41.8775 -106.2283 81° East 490 564 33,000  Level Denver Center
Sun 02:03:11 PM 41.9014 -106.0275 81° East 490 564 33,000  Level Denver Center
Sun 02:04:14 PM 41.9214 -105.8558 82° East 488 562 33,000  Level Denver Center
Sun 02:05:16 PM 41.9422 -105.6564 81° East 486 559 33,000  Level Denver Center
Sun 02:06:19 PM 41.9617 -105.4858 82° East 484 557 33,000  Level Denver Center
Sun 02:07:21 PM 41.9833 -105.2883 82° East 481 554 33,000  Level Denver Center
Sun 02:08:24 PM 42.0008 -105.1181 82° East 482 555 33,000  Level Denver Center
Sun 02:09:26 PM 42.0211 -104.9183 82° East 483 556 33,000  Level Denver Center
Sun 02:10:29 PM 42.0386 -104.7478 83° East 484 557 33,000  Level Denver Center
Sun 02:11:31 PM 42.0575 -104.5483 82° East 484 557 33,000  Level Denver Center
Sun 02:12:34 PM 42.0747 -104.3778 83° East 484 557 33,000  Level Denver Center
Sun 02:13:36 PM 42.0939 -104.1772 83° East 486 559 33,000  Level Denver Center
Sun 02:14:39 PM 42.1128 -103.9778 83° East 484 557 33,000  Level Denver Center
Sun 02:15:41 PM 42.1289 -103.8064 83° East 484 557 33,000  Level Denver Center
Sun 02:16:44 PM 42.1481 -103.6047 83° East 486 559 33,000  Level Denver Center
Sun 02:17:46 PM 42.1625 -103.4331 83° East 485 558 33,000  Level Denver Center
Sun 02:18:48 PM 42.1808 -103.2319 83° East 485 558 33,000  Level Denver Center
Sun 02:19:51 PM 42.1961 -103.0589 84° East 486 559 33,000  Level Denver Center
Sun 02:20:53 PM 42.2128 -102.8578 83° East 486 559 33,000  Level Denver Center
Sun 02:21:55 PM 42.2275 -102.6858 84° East 485 558 33,000  Level Denver Center
Sun 02:22:58 PM 42.2439 -102.4844 84° East 484 557 33,000  Level Denver Center
Sun 02:24:00 PM 42.2575 -102.3122 84° East 484 557 33,000  Level Denver Center
Sun 02:25:02 PM 42.2736 -102.1097 84° East 487 560 33,000  Level Denver Center
Sun 02:26:05 PM 42.2869 -101.9367 84° East 485 558 33,000  Level Denver Center
Sun 02:27:07 PM 42.3006 -101.7444 84° East 486 559 33,000  Level Denver Center
Sun 02:28:09 PM 42.3144 -101.5703 84° East 486 559 33,000  Level Denver Center
Sun 02:29:12 PM 42.3292 -101.3664 85° East 488 562 33,000  Level Denver Center
Sun 02:30:14 PM 42.3408 -101.1931 85° East 485 558 33,000  Level Denver Center
Sun 02:31:16 PM 42.3544 -100.9903 85° East 485 558 33,000  Level Denver Center
Sun 02:32:19 PM 42.3664 -100.8164 85° East 485 558 33,000  Level Denver Center
Sun 02:33:21 PM 42.3797 -100.6119 85° East 486 559 33,000  Level Denver Center
Sun 02:34:24 PM 42.3908 -100.4383 85° East 485 558 33,000  Level Denver Center
Sun 02:35:26 PM 42.4039 -100.2336 85° East 488 562 33,000  Level Denver Center
Sun 02:36:29 PM 42.4139 -100.0597 85° East 486 559 33,000  Level Denver Center
Sun 02:37:31 PM 42.4258 -99.8550 85° East 487 560 33,000  Level Denver Center
Sun 02:38:34 PM 42.4367 -99.6769 86° East 487 560 33,000  Level Denver Center
Sun 02:39:36 PM 42.4464 -99.4933 86° East 487 560 33,000  Level Denver Center
Sun 02:40:38 PM 42.4581 -99.2742 86° East 487 560 33,000  Level Denver Center
Sun 02:41:41 PM 42.4678 -99.0928 87° East 485 558 33,000  Level Denver Center
Sun 02:42:43 PM 42.4758 -98.9103 88° East 484 557 33,000 192 Level Denver Center
Sun 02:43:46 PM 42.4806 -98.7261 88° East 487 560 33,400 653 Climbing Denver Center
Sun 02:45:10 PM 42.4878 -98.4722 88° East 484 557 34,600 658 Climbing Minneapolis Center
Sun 02:46:12 PM 42.4917 -98.2908 89° East 482 555 35,000 194 Climbing Minneapolis Center
Sun 02:47:14 PM 42.4947 -98.1056 88° East 487 560 35,000  Level Minneapolis Center
Sun 02:48:16 PM 42.4986 -97.9217 88° East 488 562 35,000  Level Minneapolis Center
Sun 02:49:19 PM 42.5025 -97.7228 89° East 485 558 35,000  Level Minneapolis Center
Sun 02:50:21 PM 42.5044 -97.5408 89° East 483 556 35,000  Level Minneapolis Center
Sun 02:51:23 PM 42.5069 -97.3567 89° East 486 559 35,000  Level Minneapolis Center
Sun 02:52:25 PM 42.5103 -97.1339 89° East 491 565 35,000  Level Minneapolis Center
Sun 02:53:27 PM 42.5119 -96.9508 89° East 488 562 35,000  Level Minneapolis Center
Sun 02:54:29 PM 42.5136 -96.7711 89° East 482 555 35,000  Level Minneapolis Center
Sun 02:55:32 PM 42.5150 -96.5950 90° East 473 544 35,000  Level Minneapolis Center
Sun 02:56:34 PM 42.5153 -96.4161 90° East 473 544 35,000  Level Minneapolis Center
Sun 02:57:36 PM 42.5158 -96.2383 90° East 472 543 35,000  Level Minneapolis Center
Sun 02:58:38 PM 42.5169 -96.0250 90° East 472 543 35,000  Level Minneapolis Center
Sun 02:59:41 PM 42.5169 -95.8458 90° East 473 544 35,000  Level Minneapolis Center
Sun 03:00:43 PM 42.5167 -95.6653 90° East 476 548 35,000  Level Minneapolis Center
Sun 03:01:45 PM 42.5164 -95.4839 90° East 479 551 35,000  Level Minneapolis Center
Sun 03:02:47 PM 42.5158 -95.3050 90° East 476 548 35,000  Level Minneapolis Center
Sun 03:03:49 PM 42.5150 -95.1258 91° East 475 547 35,000  Level Minneapolis Center
Sun 03:04:52 PM 42.5131 -94.9089 90° East 477 549 35,000  Level Minneapolis Center
Sun 03:05:54 PM 42.5119 -94.7289 91° East 478 550 35,000  Level Minneapolis Center
Sun 03:06:56 PM 42.5097 -94.5494 91° East 481 554 35,000  Level Minneapolis Center
Sun 03:07:58 PM 42.5064 -94.3669 91° East 486 559 35,000  Level Minneapolis Center
Sun 03:09:00 PM 42.5036 -94.1856 91° East 487 560 35,000  Level Minneapolis Center
Sun 03:10:02 PM 42.5003 -94.0031 91° East 488 562 35,000  Level Minneapolis Center
Sun 03:11:04 PM 42.4972 -93.7847 92° East 488 562 35,000  Level Minneapolis Center
Sun 03:12:06 PM 42.4931 -93.6014 91° East 490 564 35,000  Level Minneapolis Center
Sun 03:13:08 PM 42.4908 -93.4192 93° East 490 564 35,000  Level Minneapolis Center
Sun 03:14:54 PM 42.4794 -93.0889 91° East 500 575 35,000  Level Chicago Center
Sun 03:15:54 PM 42.4769 -92.9086 93° East 495 570 35,000 -150 Level Chicago Center
Sun 03:16:54 PM 42.4700 -92.7222 91° East 495 570 34,700 -650 Descending Chicago Center
Sun 03:17:54 PM 42.4669 -92.5419 91° East 495 570 33,700 -850 Descending Chicago Center
Sun 03:18:54 PM 42.4633 -92.3586 92° East 490 564 33,000 -350 Descending Chicago Center
Sun 03:19:54 PM 42.4575 -92.1783 93° East 485 558 33,000 -400 Level Chicago Center
Sun 03:20:54 PM 42.4514 -91.9981 93° East 480 552 32,200 -900 Descending Chicago Center
Sun 03:21:54 PM 42.4450 -91.8231 92° East 480 552 31,200 -600 Descending Chicago Center
Sun 03:22:54 PM 42.4403 -91.6458 93° East 480 552 31,000 -100 Descending Chicago Center
Sun 03:23:54 PM 42.4314 -91.4486 93° East 480 552 31,000  Level Chicago Center
Sun 03:24:54 PM 42.4242 -91.2653 92° East 480 552 31,000  Level Chicago Center
Sun 03:25:54 PM 42.4186 -91.0881 92° East 475 547 31,000  Level Chicago Center
Sun 03:26:54 PM 42.4128 -90.9108 95° East 475 547 31,000  Level Chicago Center
Sun 03:27:54 PM 42.4025 -90.7389 83° East 470 541 31,000 -800 Level Chicago Center
Sun 03:28:54 PM 42.4192 -90.5536 82° East 470 541 29,400 -1,600 Descending Chicago Center
Sun 03:29:54 PM 42.4378 -90.3739 82° East 476 548 27,800 -1,700 Descending Chicago Center
Sun 03:30:54 PM 42.4558 -90.1914 82° East 481 554 26,000 -1,700 Descending Chicago Center
Sun 03:31:54 PM 42.4736 -90.0169 84° East 476 548 24,400 -1,700 Descending Chicago Center
Sun 03:32:54 PM 42.4869 -89.8342 82° East 481 554 22,600 -1,750 Descending Chicago Center
Sun 03:33:54 PM 42.5042 -89.6597 83° East 481 554 20,900 -1,700 Descending Chicago Center
Sun 03:34:54 PM 42.5192 -89.4936 83° East 462 532 19,200 -1,700 Descending Chicago Center
Sun 03:35:54 PM 42.5339 -89.3300 82° East 445 512 17,500 -1,850 Descending Chicago Center
Sun 03:36:54 PM 42.5506 -89.1694 90° East 438 504 15,500 -2,000 Descending Chicago Center
Sun 03:37:54 PM 42.5500 -89.0144 99° East 423 487 13,500 -1,900 Descending Chicago Center
Sun 03:38:54 PM 42.5328 -88.8708 94° East 395 455 11,700 -1,750 Descending Chicago Center
Sun 03:39:54 PM 42.5261 -88.7328 99° East 377 434 10,000 -850 Descending Chicago Center
Sun 03:40:54 PM 42.5106 -88.6033 121° Southeast 354 407 10,000 -50 Level Chicago Center
Sun 03:41:54 PM 42.4619 -88.4942 133° Southeast 333 383 9,900  Descending Chicago Center
Sun 03:42:54 PM 42.3967 -88.3997 133° Southeast 339 390 10,000 100 Climbing Chicago Center
Sun 03:43:54 PM 42.3333 -88.3078 132° Southeast 338 389 10,100  Climbing Chicago Center
Sun 03:44:54 PM 42.2719 -88.2164 140° Southeast 332 382 10,000 -450 Descending Chicago Center
Sun 03:45:54 PM 42.2086 -88.1444 144° Southeast 321 369 9,200 -1,350 Descending Chicago Center
Sun 03:46:54 PM 42.1475 -88.0842 141° Southeast 301 346 7,300 -1,100 Descending Chicago Center
Sun 03:47:54 PM 42.0947 -88.0264 86° East 273 314 7,000 -122 Descending Chicago Center
Sun 03:49:22 PM 42.1000 -87.9167 77° East 222 255 7,000  Level Chicago TRACON
Sun 03:50:28 PM 42.1167 -87.8167 90° East 212 244 7,000 -762 Level Chicago TRACON
Sun 03:51:28 PM 42.1167 -87.7500 132° Southeast 222 255 5,400 -1,700 Descending Chicago TRACON
Sun 03:52:28 PM 42.0833 -87.7000 228° Southwest 194 223 3,600 -1,474 Descending Chicago TRACON
Sun 03:53:22 PM 42.0500 -87.7500 228° Southwest 180 207 2,600 -1,111 Descending Chicago TRACON

Login

Don't have an account? Register now (free) for customized features, flight alerts, and more!